createdAt,value
2022-12-31T00:01:39.505Z,3.05
2022-12-31T00:04:06.783Z,3.88
2022-12-31T00:06:36.378Z,2.95
2022-12-31T00:09:09.230Z,3.60
2022-12-31T00:11:36.777Z,3.30
2022-12-31T00:14:04.754Z,3.55
2022-12-31T00:16:37.911Z,4.20
2022-12-31T00:19:07.261Z,2.45
2022-12-31T00:21:36.231Z,4.25
2022-12-31T00:24:05.508Z,4.13
2022-12-31T00:26:34.387Z,3.15
2022-12-31T00:29:02.660Z,3.25
2022-12-31T00:31:33.114Z,3.17
2022-12-31T00:34:01.005Z,4.45
2022-12-31T00:36:34.949Z,4.88
2022-12-31T00:39:03.986Z,3.97
2022-12-31T00:41:31.216Z,4.32
2022-12-31T00:43:59.341Z,3.42
2022-12-31T00:46:27.370Z,3.33
2022-12-31T00:48:54.789Z,4.13
2022-12-31T00:51:23.804Z,3.60
2022-12-31T00:53:52.251Z,3.40
2022-12-31T00:56:27.921Z,7.60
2022-12-31T00:58:58.831Z,3.88
2022-12-31T01:01:38.643Z,3.80
2022-12-31T01:04:13.017Z,3.80
2022-12-31T01:06:41.712Z,4.90
2022-12-31T01:09:10.260Z,5.30
2022-12-31T01:11:37.539Z,5.90
2022-12-31T01:14:09.515Z,4.35
2022-12-31T01:16:42.814Z,3.97
2022-12-31T01:19:16.302Z,3.95
2022-12-31T01:21:44.602Z,4.18
2022-12-31T01:24:12.950Z,3.65
2022-12-31T01:26:40.805Z,4.05
2022-12-31T01:29:09.043Z,4.97
2022-12-31T01:31:37.240Z,3.88
2022-12-31T01:34:05.311Z,5.28
2022-12-31T01:36:34.310Z,4.70
2022-12-31T01:39:05.438Z,4.65
2022-12-31T01:41:37.822Z,4.72
2022-12-31T01:44:14.224Z,5.15
2022-12-31T01:46:54.861Z,4.63
2022-12-31T01:49:28.290Z,4.28
2022-12-31T01:52:03.184Z,5.20
2022-12-31T01:54:34.687Z,4.47
2022-12-31T01:57:05.726Z,5.80
2022-12-31T01:59:34.339Z,5.47
2022-12-31T02:02:08.036Z,5.55
2022-12-31T02:04:37.682Z,5.00
2022-12-31T02:07:07.592Z,4.95
2022-12-31T02:09:38.911Z,5.60
2022-12-31T02:12:09.268Z,6.07
2022-12-31T02:14:49.267Z,5.50
2022-12-31T02:17:30.970Z,4.35
2022-12-31T02:20:19.760Z,6.68
2022-12-31T02:23:11.321Z,4.47
2022-12-31T02:26:00.090Z,6.28
2022-12-31T02:28:52.634Z,4.72
2022-12-31T02:31:40.106Z,4.43
2022-12-31T02:34:13.532Z,3.90
2022-12-31T02:36:44.586Z,5.15
2022-12-31T02:39:12.590Z,4.80
2022-12-31T02:41:52.420Z,5.13
2022-12-31T02:44:26.117Z,4.78
2022-12-31T02:47:09.098Z,5.55
2022-12-31T02:49:57.205Z,5.20
2022-12-31T02:52:48.563Z,4.97
2022-12-31T02:55:27.919Z,5.63
2022-12-31T02:58:20.383Z,4.95
2022-12-31T03:01:15.026Z,5.35
2022-12-31T03:03:45.363Z,5.63
2022-12-31T03:06:13.989Z,5.70
2022-12-31T03:09:01.998Z,5.13
2022-12-31T03:11:49.402Z,3.92
2022-12-31T03:14:17.314Z,4.78
2022-12-31T03:16:44.566Z,4.78
2022-12-31T03:19:30.182Z,3.78
2022-12-31T03:22:16.386Z,3.88
2022-12-31T03:25:08.448Z,5.05
2022-12-31T03:27:39.827Z,5.78
2022-12-31T03:30:07.805Z,5.13
2022-12-31T03:32:37.811Z,4.82
2022-12-31T03:35:06.091Z,4.95
2022-12-31T03:37:33.356Z,4.95
2022-12-31T03:40:03.913Z,5.28
2022-12-31T03:42:33.618Z,5.43
2022-12-31T03:45:01.353Z,5.07
2022-12-31T03:47:35.739Z,5.28
2022-12-31T03:50:03.863Z,6.15
2022-12-31T03:52:31.079Z,5.13
2022-12-31T03:54:58.903Z,4.65
2022-12-31T03:57:26.192Z,4.88
2022-12-31T03:59:53.562Z,4.82
2022-12-31T04:02:28.052Z,5.22
2022-12-31T04:04:55.999Z,5.65
2022-12-31T04:07:26.055Z,4.75
2022-12-31T04:09:53.158Z,5.82
2022-12-31T04:12:20.309Z,4.93
2022-12-31T04:14:50.604Z,4.85
2022-12-31T04:17:18.493Z,4.72
2022-12-31T04:19:45.884Z,4.68
2022-12-31T04:22:14.463Z,4.90
2022-12-31T04:24:45.726Z,5.72
2022-12-31T04:27:20.190Z,4.63
2022-12-31T04:29:54.633Z,5.43
2022-12-31T04:32:24.579Z,4.45
2022-12-31T04:34:52.174Z,6.35
2022-12-31T04:37:19.603Z,4.55
2022-12-31T04:39:49.842Z,4.55
2022-12-31T04:42:17.088Z,5.55
2022-12-31T04:44:44.315Z,5.55
2022-12-31T04:47:23.656Z,4.75
2022-12-31T04:49:51.464Z,5.78
2022-12-31T04:52:18.665Z,5.28
2022-12-31T04:54:45.902Z,5.22
2022-12-31T04:57:15.773Z,5.45
2022-12-31T04:59:43.490Z,5.82
2022-12-31T05:02:12.798Z,6.70
2022-12-31T05:04:40.155Z,7.65
2022-12-31T05:07:07.712Z,6.18
2022-12-31T05:09:35.511Z,6.90
2022-12-31T05:12:02.878Z,7.60
2022-12-31T05:14:30.196Z,5.85
2022-12-31T05:17:01.346Z,4.72
2022-12-31T05:19:28.906Z,6.20
2022-12-31T05:22:17.348Z,6.15
2022-12-31T05:24:44.580Z,6.50
2022-12-31T05:27:11.843Z,6.63
2022-12-31T05:29:39.653Z,6.15
2022-12-31T05:32:06.769Z,6.55
2022-12-31T05:34:39.529Z,6.88
2022-12-31T05:37:11.860Z,6.03
2022-12-31T05:39:47.863Z,5.25
2022-12-31T05:42:16.431Z,6.40
2022-12-31T05:44:52.476Z,6.47
2022-12-31T05:47:19.905Z,6.68
2022-12-31T05:49:47.172Z,6.57
2022-12-31T05:52:14.826Z,5.82
2022-12-31T05:54:42.182Z,5.57
2022-12-31T05:57:13.217Z,6.38
2022-12-31T05:59:40.368Z,5.38
2022-12-31T06:02:10.191Z,7.50
2022-12-31T06:04:42.885Z,5.70
2022-12-31T06:07:13.870Z,6.20
2022-12-31T06:09:44.262Z,6.18
2022-12-31T06:12:11.841Z,6.88
2022-12-31T06:14:45.296Z,5.57
2022-12-31T06:17:13.091Z,7.05
2022-12-31T06:19:40.202Z,5.85
2022-12-31T06:22:10.480Z,5.25
2022-12-31T06:24:37.793Z,5.80
2022-12-31T06:27:05.205Z,6.00
2022-12-31T06:29:33.150Z,5.97
2022-12-31T06:32:00.471Z,5.78
2022-12-31T06:34:30.677Z,5.72
2022-12-31T06:36:58.183Z,5.90
2022-12-31T06:39:26.432Z,5.57
2022-12-31T06:41:54.359Z,6.47
2022-12-31T06:44:23.705Z,6.65
2022-12-31T06:46:53.599Z,6.47
2022-12-31T06:49:30.170Z,6.40
2022-12-31T06:52:00.134Z,6.82
2022-12-31T06:54:30.373Z,5.60
2022-12-31T06:57:01.303Z,6.07
2022-12-31T06:59:33.954Z,6.28
2022-12-31T07:02:16.141Z,6.10
2022-12-31T07:05:13.758Z,6.15
2022-12-31T07:10:52.050Z,6.05
2022-12-31T07:13:30.953Z,6.40
2022-12-31T07:19:09.746Z,5.70
2022-12-31T07:21:40.192Z,6.15
2022-12-31T07:24:12.599Z,7.15
2022-12-31T07:27:11.210Z,6.57
2022-12-31T07:30:16.128Z,6.60
2022-12-31T07:32:52.204Z,7.03
2022-12-31T07:35:43.061Z,6.22
2022-12-31T07:38:35.733Z,6.85
2022-12-31T07:41:30.744Z,6.18
2022-12-31T07:47:00.702Z,7.32
2022-12-31T07:49:30.147Z,7.35
2022-12-31T07:52:00.255Z,7.75
2022-12-31T07:54:30.315Z,8.43
2022-12-31T07:57:01.004Z,8.10
2022-12-31T07:59:34.222Z,8.30
2022-12-31T08:02:20.493Z,8.60
2022-12-31T08:05:08.614Z,8.43
2022-12-31T08:08:09.866Z,8.48
2022-12-31T08:10:52.249Z,8.13
2022-12-31T08:13:22.530Z,8.82
2022-12-31T08:15:50.281Z,7.82
2022-12-31T08:18:17.866Z,9.68
2022-12-31T08:21:37.659Z,8.15
2022-12-31T08:24:36.373Z,9.02
2022-12-31T08:27:51.255Z,8.55
2022-12-31T08:30:21.810Z,9.32
2022-12-31T08:33:14.992Z,8.60
2022-12-31T08:36:10.963Z,9.13
2022-12-31T08:38:55.424Z,9.18
2022-12-31T08:41:25.981Z,9.85
2022-12-31T08:44:06.016Z,9.63
2022-12-31T08:46:54.956Z,9.07
2022-12-31T08:49:22.679Z,9.32
2022-12-31T08:51:52.442Z,10.85
2022-12-31T08:54:20.503Z,9.20
2022-12-31T08:57:10.108Z,11.15
2022-12-31T09:00:06.128Z,10.85
2022-12-31T09:02:54.441Z,11.30
2022-12-31T09:05:48.810Z,8.63
2022-12-31T09:08:34.207Z,10.27
2022-12-31T09:11:26.194Z,10.10
2022-12-31T09:14:36.083Z,8.57
2022-12-31T09:17:30.211Z,10.75
2022-12-31T09:19:57.860Z,10.27
2022-12-31T09:22:32.965Z,10.80
2022-12-31T09:25:00.862Z,10.63
2022-12-31T09:27:42.867Z,11.57
2022-12-31T09:30:16.229Z,10.38
2022-12-31T09:33:07.532Z,10.57
2022-12-31T09:36:17.256Z,11.38
2022-12-31T09:41:33.468Z,10.18
2022-12-31T09:44:28.890Z,9.63
2022-12-31T09:47:02.233Z,9.90
2022-12-31T09:49:53.409Z,10.77
2022-12-31T09:52:36.245Z,12.57
2022-12-31T09:55:27.726Z,10.95
2022-12-31T09:58:32.996Z,11.02
2022-12-31T10:01:28.226Z,10.73
2022-12-31T10:04:24.581Z,10.38
2022-12-31T10:07:32.772Z,11.10
2022-12-31T10:10:08.841Z,10.65
2022-12-31T10:13:09.784Z,11.02
2022-12-31T10:16:32.881Z,11.63
2022-12-31T10:19:27.432Z,9.68
2022-12-31T10:24:58.099Z,11.13
2022-12-31T10:27:33.500Z,11.55
2022-12-31T10:30:24.469Z,12.18
2022-12-31T10:33:08.712Z,11.82
2022-12-31T10:35:50.002Z,13.38
2022-12-31T10:38:36.852Z,12.80
2022-12-31T10:41:22.761Z,10.25
2022-12-31T10:43:59.056Z,11.27
2022-12-31T10:46:50.460Z,12.50
2022-12-31T10:49:42.693Z,13.48
2022-12-31T10:53:02.748Z,11.77
2022-12-31T10:56:09.681Z,10.88
2022-12-31T10:59:15.403Z,11.48
2022-12-31T11:02:14.293Z,12.93
2022-12-31T11:05:03.370Z,10.32
2022-12-31T11:08:28.265Z,11.35
2022-12-31T11:11:20.968Z,11.40
2022-12-31T11:14:18.838Z,10.93
2022-12-31T11:16:55.074Z,11.82
2022-12-31T11:19:22.865Z,13.55
2022-12-31T11:22:04.998Z,10.07
2022-12-31T11:24:52.352Z,11.60
2022-12-31T11:27:26.018Z,11.48
2022-12-31T11:30:14.431Z,10.07
2022-12-31T11:33:22.783Z,11.20
2022-12-31T11:36:06.996Z,10.40
2022-12-31T11:41:08.097Z,10.73
2022-12-31T11:44:03.017Z,10.75
2022-12-31T11:47:02.396Z,12.43
2022-12-31T11:49:44.139Z,11.60
2022-12-31T11:52:33.664Z,9.63
2022-12-31T11:55:15.966Z,12.02
2022-12-31T11:57:49.993Z,11.48
2022-12-31T12:00:21.349Z,11.13
2022-12-31T12:03:00.164Z,12.40
2022-12-31T12:06:06.305Z,13.07
2022-12-31T12:08:34.700Z,8.75
2022-12-31T12:11:25.666Z,10.45
2022-12-31T12:16:31.348Z,11.07
2022-12-31T12:19:07.609Z,10.57
2022-12-31T12:21:44.743Z,12.23
2022-12-31T12:24:33.227Z,11.48
2022-12-31T12:27:00.645Z,11.18
2022-12-31T12:29:31.734Z,10.43
2022-12-31T12:32:27.826Z,11.10
2022-12-31T12:34:55.310Z,11.48
2022-12-31T12:37:30.305Z,9.07
2022-12-31T12:40:01.175Z,10.68
2022-12-31T12:42:37.567Z,11.32
2022-12-31T12:45:06.756Z,12.15
2022-12-31T12:47:37.585Z,10.43
2022-12-31T12:50:18.808Z,11.10
2022-12-31T12:53:32.027Z,10.73
2022-12-31T12:56:40.120Z,10.95
2022-12-31T12:59:44.988Z,11.82
2022-12-31T13:02:31.129Z,10.18
2022-12-31T13:05:05.959Z,11.75
2022-12-31T13:07:52.099Z,10.50
2022-12-31T13:10:37.546Z,9.90
2022-12-31T13:13:23.857Z,12.75
2022-12-31T13:16:17.298Z,13.57
2022-12-31T13:19:08.712Z,12.70
2022-12-31T13:21:44.317Z,12.10
2022-12-31T13:24:30.891Z,12.25
2022-12-31T13:27:20.423Z,13.65
2022-12-31T13:29:49.277Z,14.77
2022-12-31T13:32:43.904Z,13.68
2022-12-31T13:35:32.554Z,11.70
2022-12-31T13:38:33.819Z,12.88
2022-12-31T13:41:27.680Z,13.88
2022-12-31T13:44:04.280Z,13.80
2022-12-31T13:46:49.647Z,12.48
2022-12-31T13:49:31.723Z,12.63
2022-12-31T13:52:26.314Z,15.55
2022-12-31T13:55:12.957Z,14.48
2022-12-31T13:57:57.662Z,13.30
2022-12-31T14:00:31.560Z,12.32
2022-12-31T14:03:13.136Z,13.07
2022-12-31T14:05:58.961Z,15.43
2022-12-31T14:08:26.148Z,13.15
2022-12-31T14:11:25.772Z,13.48
2022-12-31T14:14:15.853Z,14.63
2022-12-31T14:17:19.666Z,16.77
2022-12-31T14:20:16.416Z,15.27
2022-12-31T14:22:48.706Z,15.68
2022-12-31T14:25:31.513Z,14.48
2022-12-31T14:28:02.870Z,14.50
2022-12-31T14:30:40.107Z,14.80
2022-12-31T14:33:30.443Z,15.73
2022-12-31T14:36:20.472Z,15.80
2022-12-31T14:42:53.806Z,16.85
2022-12-31T14:45:44.960Z,17.02
2022-12-31T14:48:18.592Z,18.15
2022-12-31T14:50:49.565Z,19.92
2022-12-31T14:53:24.556Z,18.23
2022-12-31T14:56:31.316Z,19.15
2022-12-31T14:59:01.680Z,20.38
2022-12-31T15:01:31.111Z,20.40
2022-12-31T15:04:01.226Z,19.00
2022-12-31T15:06:58.137Z,19.50
2022-12-31T15:09:59.415Z,17.15
2022-12-31T15:13:07.615Z,21.70
2022-12-31T15:15:38.445Z,20.42
2022-12-31T15:18:27.469Z,18.27
2022-12-31T15:21:16.843Z,20.50
2022-12-31T15:26:31.085Z,15.85
2022-12-31T15:29:08.316Z,18.13
2022-12-31T15:31:36.771Z,19.23
2022-12-31T15:34:07.987Z,17.95
2022-12-31T15:36:40.917Z,19.67
2022-12-31T15:39:14.130Z,18.92
2022-12-31T15:42:18.837Z,20.30
2022-12-31T15:44:55.537Z,17.95
2022-12-31T15:47:40.531Z,18.90
2022-12-31T15:50:22.300Z,17.70
2022-12-31T15:52:52.768Z,19.20
2022-12-31T15:55:44.584Z,17.63
2022-12-31T15:58:18.259Z,18.10
2022-12-31T16:00:59.786Z,18.38
2022-12-31T16:03:30.847Z,17.77
2022-12-31T16:06:10.816Z,16.67
2022-12-31T16:08:45.535Z,19.45
2022-12-31T16:11:13.318Z,17.92
2022-12-31T16:13:44.671Z,17.45
2022-12-31T16:16:36.848Z,16.85
2022-12-31T16:19:06.557Z,17.60
2022-12-31T16:21:39.140Z,17.45
2022-12-31T16:24:29.343Z,15.90
2022-12-31T16:27:08.257Z,17.70
2022-12-31T16:29:50.615Z,16.17
2022-12-31T16:32:22.536Z,15.35
2022-12-31T16:34:55.111Z,15.00
2022-12-31T16:37:23.768Z,13.73
2022-12-31T16:39:57.115Z,17.83
2022-12-31T16:42:28.219Z,16.63
2022-12-31T16:44:57.643Z,16.63
2022-12-31T16:47:57.290Z,16.73
2022-12-31T16:50:36.591Z,16.40
2022-12-31T16:53:07.533Z,13.70
2022-12-31T16:55:39.498Z,15.05
2022-12-31T16:58:28.582Z,15.05
2022-12-31T17:01:13.559Z,14.07
2022-12-31T17:03:59.324Z,14.63
2022-12-31T17:06:31.453Z,16.05
2022-12-31T17:09:00.093Z,16.95
2022-12-31T17:11:59.635Z,15.27
2022-12-31T17:14:32.987Z,14.75
2022-12-31T17:17:14.965Z,15.45
2022-12-31T17:19:53.139Z,13.88
2022-12-31T17:25:27.462Z,13.70
2022-12-31T17:28:07.485Z,14.50
2022-12-31T17:30:40.884Z,13.10
2022-12-31T17:33:08.075Z,14.00
2022-12-31T17:35:44.483Z,14.45
2022-12-31T17:38:33.455Z,13.85
2022-12-31T17:41:06.789Z,14.73
2022-12-31T17:43:40.008Z,14.32
2022-12-31T17:46:16.411Z,13.65
2022-12-31T17:48:47.197Z,12.75
2022-12-31T17:51:17.059Z,14.02
2022-12-31T17:53:53.052Z,15.45
2022-12-31T17:56:21.133Z,16.00
2022-12-31T17:58:52.716Z,15.32
2022-12-31T18:01:22.958Z,15.82
2022-12-31T18:03:50.845Z,14.57
2022-12-31T18:06:21.723Z,14.13
2022-12-31T18:08:49.319Z,14.25
2022-12-31T18:11:22.589Z,13.73
2022-12-31T18:13:50.413Z,14.70
2022-12-31T18:16:17.840Z,13.57
2022-12-31T18:18:47.483Z,14.43
2022-12-31T18:21:23.656Z,13.27
2022-12-31T18:23:50.977Z,13.55
2022-12-31T18:26:30.292Z,13.70
2022-12-31T18:29:00.803Z,13.02
2022-12-31T18:31:30.228Z,12.32
2022-12-31T18:34:00.793Z,13.00
2022-12-31T18:36:31.601Z,13.10
2022-12-31T18:39:01.592Z,14.20
2022-12-31T18:41:45.865Z,12.77
2022-12-31T18:44:16.987Z,10.05
2022-12-31T18:46:46.806Z,11.63
2022-12-31T18:49:17.338Z,10.70
2022-12-31T18:51:44.338Z,11.40
2022-12-31T18:54:17.133Z,12.10
2022-12-31T18:56:50.283Z,12.98
2022-12-31T18:59:21.213Z,10.77
2022-12-31T19:01:49.350Z,10.85
2022-12-31T19:04:27.483Z,10.35
2022-12-31T19:07:16.403Z,10.52
2022-12-31T19:09:45.581Z,9.13
2022-12-31T19:12:14.366Z,8.88
2022-12-31T19:14:45.662Z,12.18
2022-12-31T19:17:12.904Z,12.13
2022-12-31T19:19:46.165Z,9.82
2022-12-31T19:22:16.404Z,11.32
2022-12-31T19:24:44.150Z,9.85
2022-12-31T19:27:17.859Z,8.85
2022-12-31T19:29:46.510Z,9.25
2022-12-31T19:32:13.997Z,10.02
2022-12-31T19:34:41.740Z,8.82
2022-12-31T19:37:15.242Z,8.88
2022-12-31T19:39:42.528Z,8.05
2022-12-31T19:42:16.335Z,8.00
2022-12-31T19:44:46.398Z,8.50
2022-12-31T19:47:14.350Z,10.07
2022-12-31T19:49:44.578Z,9.10
2022-12-31T19:52:14.773Z,8.52
2022-12-31T19:54:41.954Z,10.50
2022-12-31T19:57:09.550Z,11.00
2022-12-31T19:59:37.117Z,11.82
2022-12-31T20:02:04.647Z,10.98
2022-12-31T20:04:32.360Z,10.73
2022-12-31T20:06:59.857Z,10.23
2022-12-31T20:09:27.544Z,10.82
2022-12-31T20:11:56.396Z,9.00
2022-12-31T20:14:23.922Z,9.73
2022-12-31T20:16:54.088Z,9.75
2022-12-31T20:19:24.063Z,8.32
2022-12-31T20:21:59.798Z,9.32
2022-12-31T20:24:34.199Z,9.85
2022-12-31T20:27:01.794Z,9.13
2022-12-31T20:29:31.560Z,8.68
2022-12-31T20:31:58.923Z,8.60
2022-12-31T20:34:31.898Z,8.75
2022-12-31T20:37:02.897Z,8.35
2022-12-31T20:39:33.093Z,8.35
2022-12-31T20:42:00.630Z,9.27
2022-12-31T20:44:28.469Z,10.05
2022-12-31T20:46:55.960Z,8.98
2022-12-31T20:49:44.861Z,8.23
2022-12-31T20:52:13.856Z,9.10
2022-12-31T20:54:41.565Z,8.65
2022-12-31T20:57:11.507Z,8.35
2022-12-31T20:59:40.902Z,8.77
2022-12-31T21:02:21.105Z,7.88
2022-12-31T21:04:49.211Z,8.52
2022-12-31T21:07:25.976Z,7.78
2022-12-31T21:09:53.570Z,8.30
2022-12-31T21:12:39.001Z,7.00
2022-12-31T21:15:06.881Z,5.82
2022-12-31T21:17:34.145Z,9.25
2022-12-31T21:20:05.360Z,9.85
2022-12-31T21:22:34.191Z,9.10
2022-12-31T21:25:05.700Z,12.07
2022-12-31T21:27:33.508Z,10.88
2022-12-31T21:30:19.938Z,8.77
2022-12-31T21:32:48.080Z,8.45
2022-12-31T21:35:43.253Z,8.48
2022-12-31T21:38:05.351Z,8.93
2022-12-31T21:40:33.923Z,9.48
2022-12-31T21:43:02.123Z,8.35
2022-12-31T21:45:29.591Z,8.20
2022-12-31T21:48:18.354Z,7.03
2022-12-31T21:50:49.473Z,7.28
2022-12-31T21:53:26.145Z,7.07
2022-12-31T21:56:16.073Z,8.13
2022-12-31T21:58:45.906Z,8.43
2022-12-31T22:01:44.404Z,6.20
2022-12-31T22:04:35.219Z,6.90
2022-12-31T22:07:01.404Z,18.30
2022-12-31T22:09:28.608Z,15.13
2022-12-31T22:11:58.672Z,30.98
2022-12-31T22:14:31.667Z,43.45
2022-12-31T22:16:59.030Z,41.30
2022-12-31T22:19:26.199Z,23.70
2022-12-31T22:21:56.387Z,19.77
2022-12-31T22:24:23.697Z,21.80
2022-12-31T22:26:52.429Z,52.40
2022-12-31T22:29:21.653Z,55.67
2022-12-31T22:31:48.899Z,32.08
2022-12-31T22:34:17.249Z,28.58
2022-12-31T22:36:44.799Z,23.73
2022-12-31T22:39:44.787Z,17.80
2022-12-31T22:42:03.475Z,14.30
2022-12-31T22:44:30.502Z,12.95
2022-12-31T22:47:00.995Z,22.83
2022-12-31T22:49:33.451Z,20.92
2022-12-31T22:52:04.230Z,20.13
2022-12-31T22:54:38.704Z,19.13
2022-12-31T22:57:19.809Z,19.08
2022-12-31T22:59:48.558Z,14.90
2022-12-31T23:02:16.505Z,13.25
2022-12-31T23:04:52.237Z,10.23
2022-12-31T23:07:21.931Z,7.70
2022-12-31T23:10:08.383Z,10.43
2022-12-31T23:12:38.671Z,8.20
2022-12-31T23:15:28.718Z,7.85
2022-12-31T23:18:14.523Z,7.47
2022-12-31T23:21:02.955Z,6.20
2022-12-31T23:23:31.730Z,5.65
2022-12-31T23:26:02.808Z,5.63
2022-12-31T23:28:30.172Z,4.18
2022-12-31T23:31:05.627Z,4.43
2022-12-31T23:33:33.281Z,4.65
2022-12-31T23:36:07.539Z,4.28
2022-12-31T23:38:35.573Z,3.45
2022-12-31T23:41:16.099Z,4.00
2022-12-31T23:43:44.711Z,3.22
2022-12-31T23:46:16.010Z,3.30
2022-12-31T23:48:51.111Z,3.83
2022-12-31T23:51:21.369Z,3.80
2022-12-31T23:53:53.096Z,4.40
2022-12-31T23:56:23.975Z,3.70
2022-12-31T23:58:59.508Z,3.25
